Time;durP1;ratioP1;P1;durP2;ratioP2;P2;SDS_P1;SDS_P2;PMS_P1;PMS_P2;Temp;Humidity;BMP_temperature;BMP_pressure;BME280_temperature;BME280_humidity;BME280_pressure;Samples;Min_cycle;Max_cycle;Signal;HPM_P1;HPM_P2
2021/10/14 00:01:20;;;;;;;2.50;2.30;;;6.00;99.90;;;;;;5039260;28;20219;-79
2021/10/14 00:03:46;;;;;;;2.40;2.20;;;6.00;99.90;;;;;;5038143;28;20547;-78
2021/10/14 00:06:12;;;;;;;2.67;2.47;;;6.00;99.90;;;;;;5038405;28;20715;-77
2021/10/14 00:08:37;;;;;;;3.50;2.50;;;6.00;99.90;;;;;;5036607;28;20693;-79
2021/10/14 00:11:03;;;;;;;2.67;2.47;;;6.00;99.90;;;;;;5037880;28;20193;-79
2021/10/14 00:13:29;;;;;;;2.30;2.10;;;5.90;99.90;;;;;;5039306;28;20263;-79
2021/10/14 00:15:55;;;;;;;2.47;2.27;;;5.90;99.90;;;;;;5039063;28;20178;-77
2021/10/14 00:18:20;;;;;;;2.83;2.40;;;5.90;99.90;;;;;;5034806;28;20549;-79
2021/10/14 00:20:46;;;;;;;2.60;2.40;;;5.90;99.90;;;;;;5034474;28;20241;-77
2021/10/14 00:23:12;;;;;;;2.90;2.60;;;5.70;99.90;;;;;;5034506;28;20285;-77
2021/10/14 00:25:39;;;;;;;2.60;2.40;;;5.60;99.90;;;;;;5032368;28;20187;-77
2021/10/14 00:28:05;;;;;;;3.10;2.80;;;5.60;99.90;;;;;;5034008;28;20635;-77
2021/10/14 00:30:30;;;;;;;2.73;2.47;;;5.60;99.90;;;;;;5032488;28;20263;-77
2021/10/14 00:32:56;;;;;;;2.33;2.13;;;5.50;99.90;;;;;;5033275;28;20229;-77
2021/10/14 00:35:24;;;;;;;3.53;2.23;;;5.50;99.90;;;;;;5032195;28;20240;-77
2021/10/14 00:37:50;;;;;;;3.87;2.60;;;5.50;99.90;;;;;;5032225;28;20526;-77
2021/10/14 00:40:17;;;;;;;2.50;2.30;;;5.50;99.90;;;;;;5033202;28;20281;-77
2021/10/14 00:42:46;;;;;;;2.97;2.20;;;5.50;99.90;;;;;;5031964;28;20187;-77
2021/10/14 00:45:13;;;;;;;2.67;2.47;;;5.50;99.90;;;;;;5032088;28;20557;-77
2021/10/14 00:47:39;;;;;;;2.77;2.40;;;5.50;99.90;;;;;;5033308;28;20261;-77
2021/10/14 00:50:06;;;;;;;2.97;2.20;;;5.50;99.90;;;;;;5032977;28;20545;-77
2021/10/14 00:52:33;;;;;;;2.43;2.23;;;5.40;99.90;;;;;;5033134;28;20208;-77
2021/10/14 00:54:59;;;;;;;2.97;2.53;;;5.40;99.90;;;;;;5033503;28;20222;-76
2021/10/14 00:57:26;;;;;;;2.50;2.30;;;5.50;99.90;;;;;;5039202;28;20170;-77
2021/10/14 00:59:53;;;;;;;2.90;2.30;;;5.40;99.90;;;;;;5035142;28;20197;-77
2021/10/14 01:02:18;;;;;;;3.07;2.80;;;5.40;99.90;;;;;;5036546;28;20177;-77
2021/10/14 01:04:44;;;;;;;2.33;2.13;;;5.30;99.90;;;;;;5018079;28;20179;-77
2021/10/14 01:07:10;;;;;;;2.93;2.43;;;5.30;99.90;;;;;;5032149;28;20592;-77
2021/10/14 01:09:38;;;;;;;2.53;2.33;;;5.30;99.90;;;;;;5017402;28;20181;-77
2021/10/14 01:12:04;;;;;;;2.50;2.30;;;5.30;99.90;;;;;;5032392;28;20193;-77
2021/10/14 01:14:31;;;;;;;3.03;2.10;;;5.30;99.90;;;;;;5031650;28;20217;-77
2021/10/14 01:16:57;;;;;;;2.33;2.13;;;5.20;99.90;;;;;;5018198;28;20214;-77
2021/10/14 01:19:22;;;;;;;2.03;1.90;;;5.20;99.90;;;;;;5020637;28;20723;-77
2021/10/14 01:21:49;;;;;;;2.63;1.97;;;5.30;99.90;;;;;;5023871;28;20334;-77
2021/10/14 01:24:15;;;;;;;2.40;2.20;;;5.10;99.90;;;;;;5030765;28;20637;-77
2021/10/14 01:26:40;;;;;;;2.40;2.17;;;5.20;99.90;;;;;;5028025;28;20233;-77
2021/10/14 01:29:07;;;;;;;2.47;2.27;;;5.20;99.90;;;;;;5021131;28;20232;-77
2021/10/14 01:31:33;;;;;;;5.40;2.10;;;5.10;99.90;;;;;;5035806;28;20278;-77
2021/10/14 01:33:59;;;;;;;2.23;2.03;;;5.00;99.90;;;;;;5036048;28;20217;-77
2021/10/14 01:36:25;;;;;;;2.27;2.07;;;5.10;99.90;;;;;;5035943;28;20169;-77
2021/10/14 01:38:50;;;;;;;4.10;1.87;;;5.00;99.90;;;;;;5035761;28;20220;-77
2021/10/14 01:41:16;;;;;;;2.97;2.37;;;5.10;99.90;;;;;;5034538;28;20578;-77
2021/10/14 01:43:42;;;;;;;3.87;2.70;;;5.00;99.90;;;;;;5035572;28;20226;-77
2021/10/14 01:46:09;;;;;;;3.67;2.43;;;5.00;99.90;;;;;;5032596;28;20175;-77
2021/10/14 01:48:35;;;;;;;2.97;2.37;;;4.90;99.90;;;;;;5033077;28;20182;-77
2021/10/14 01:51:02;;;;;;;2.50;2.30;;;4.90;99.90;;;;;;5034128;28;20211;-77
2021/10/14 01:53:27;;;;;;;2.93;2.20;;;4.90;99.90;;;;;;5033663;28;20242;-77
2021/10/14 01:55:53;;;;;;;2.50;2.30;;;4.90;99.90;;;;;;5035092;28;20600;-77
2021/10/14 01:58:19;;;;;;;2.83;2.23;;;4.90;99.90;;;;;;5036012;28;20168;-77
2021/10/14 02:00:48;;;;;;;2.60;2.10;;;4.80;99.90;;;;;;5035474;28;20680;-77
2021/10/14 02:03:14;;;;;;;2.37;2.17;;;4.90;99.90;;;;;;5032660;28;20184;-77
2021/10/14 02:05:40;;;;;;;2.50;2.30;;;4.80;99.90;;;;;;5034832;28;20183;-77
2021/10/14 02:08:05;;;;;;;2.60;2.27;;;4.70;99.90;;;;;;5034342;28;20176;-77
2021/10/14 02:10:31;;;;;;;2.70;2.50;;;4.80;99.90;;;;;;5034590;28;20791;-77
2021/10/14 02:12:57;;;;;;;2.00;1.70;;;4.70;99.90;;;;;;5033288;28;20288;-77
2021/10/14 02:15:23;;;;;;;2.43;2.00;;;4.70;99.90;;;;;;5035089;28;20259;-77
2021/10/14 02:17:49;;;;;;;2.57;2.20;;;4.70;99.90;;;;;;5033242;28;20264;-77
2021/10/14 02:20:15;;;;;;;2.57;2.00;;;4.80;99.90;;;;;;5034186;28;20268;-77
2021/10/14 02:22:41;;;;;;;2.30;2.10;;;4.70;99.90;;;;;;5033636;28;20210;-77
2021/10/14 02:25:09;;;;;;;1.70;1.60;;;4.70;99.90;;;;;;5034451;28;20196;-77
2021/10/14 02:27:36;;;;;;;3.03;2.23;;;4.70;99.90;;;;;;5034141;28;20202;-76
2021/10/14 02:30:03;;;;;;;2.53;2.00;;;4.70;99.90;;;;;;5034331;28;20681;-77
2021/10/14 02:32:29;;;;;;;2.30;2.10;;;4.70;99.90;;;;;;5032801;28;20661;-77
2021/10/14 02:34:57;;;;;;;2.67;2.47;;;4.70;99.90;;;;;;5034238;28;20167;-77
2021/10/14 02:37:26;;;;;;;3.00;1.80;;;4.70;99.90;;;;;;5033790;28;20528;-77
2021/10/14 02:39:52;;;;;;;2.00;1.80;;;4.70;99.90;;;;;;5031648;28;20314;-77
2021/10/14 02:42:18;;;;;;;3.30;2.43;;;4.70;99.90;;;;;;5032404;28;20168;-77
2021/10/14 02:44:44;;;;;;;2.23;2.03;;;4.70;99.90;;;;;;5032244;28;20181;-77
2021/10/14 02:47:10;;;;;;;2.30;2.10;;;4.70;99.90;;;;;;5032140;28;20172;-77
2021/10/14 02:49:36;;;;;;;1.93;1.77;;;4.70;99.90;;;;;;5032201;28;20570;-77
2021/10/14 02:52:02;;;;;;;2.77;2.20;;;4.70;99.90;;;;;;5032100;28;20253;-77
2021/10/14 02:54:27;;;;;;;3.23;2.20;;;4.70;99.90;;;;;;5031899;28;20174;-77
2021/10/14 02:56:53;;;;;;;2.20;2.00;;;4.70;99.90;;;;;;5031961;28;20178;-76
2021/10/14 02:59:18;;;;;;;2.50;2.30;;;4.70;99.90;;;;;;5032261;28;20175;-76
2021/10/14 03:01:44;;;;;;;2.87;2.00;;;4.60;99.90;;;;;;5031675;28;20169;-77
2021/10/14 03:04:10;;;;;;;2.53;1.97;;;4.60;99.90;;;;;;5031773;28;20643;-77
2021/10/14 03:06:35;;;;;;;2.00;1.87;;;4.60;99.90;;;;;;5033073;28;20177;-77
2021/10/14 03:09:01;;;;;;;4.37;2.20;;;4.40;99.90;;;;;;5022354;28;20188;-77
2021/10/14 03:11:27;;;;;;;2.43;2.23;;;4.50;99.90;;;;;;5033175;28;20204;-76
2021/10/14 03:13:52;;;;;;;2.40;2.20;;;4.50;99.90;;;;;;5033273;28;20179;-77
2021/10/14 03:16:18;;;;;;;3.00;2.20;;;4.50;99.90;;;;;;5031943;28;20172;-77
2021/10/14 03:18:44;;;;;;;2.53;2.17;;;4.40;99.90;;;;;;5031033;28;20178;-77
2021/10/14 03:21:09;;;;;;;2.43;2.23;;;4.40;99.90;;;;;;5053041;22;20216;-80
2021/10/14 03:23:35;;;;;;;3.07;2.33;;;4.40;99.90;;;;;;5039895;28;20180;-80
2021/10/14 03:26:04;;;;;;;2.40;2.20;;;4.40;99.90;;;;;;5039393;28;20660;-80
2021/10/14 03:28:30;;;;;;;2.43;2.20;;;4.40;99.90;;;;;;5038777;28;20202;-80
2021/10/14 03:30:57;;;;;;;2.67;2.47;;;4.30;99.90;;;;;;5038390;28;20196;-80
2021/10/14 03:33:23;;;;;;;2.70;2.40;;;4.30;99.90;;;;;;5036743;28;20632;-80
2021/10/14 03:35:49;;;;;;;2.53;2.33;;;4.30;99.90;;;;;;5038471;28;20711;-80
2021/10/14 03:38:14;;;;;;;2.43;2.00;;;4.30;99.90;;;;;;5037658;28;20179;-80
2021/10/14 03:40:41;;;;;;;2.27;2.07;;;4.30;99.90;;;;;;5038686;28;20539;-80
2021/10/14 03:43:07;;;;;;;2.70;2.30;;;4.30;99.90;;;;;;5037689;28;20528;-80
2021/10/14 03:45:32;;;;;;;2.57;2.37;;;4.20;99.90;;;;;;5037957;28;20185;-79
2021/10/14 03:47:58;;;;;;;2.27;2.13;;;4.20;99.90;;;;;;5036394;28;20182;-79
2021/10/14 03:50:23;;;;;;;2.57;2.13;;;4.20;99.90;;;;;;5035403;28;20505;-79
2021/10/14 03:52:49;;;;;;;2.23;2.00;;;4.20;99.90;;;;;;5036926;28;20205;-79
2021/10/14 03:55:15;;;;;;;3.00;2.23;;;4.20;99.90;;;;;;5034852;28;20646;-79
2021/10/14 03:57:40;;;;;;;2.57;2.30;;;4.20;99.90;;;;;;5036231;28;20173;-79
2021/10/14 04:00:07;;;;;;;2.80;2.50;;;4.10;99.90;;;;;;5036417;28;20172;-79
2021/10/14 04:02:33;;;;;;;2.20;1.93;;;4.10;99.90;;;;;;5037396;28;20187;-79
2021/10/14 04:04:59;;;;;;;2.40;2.20;;;4.10;99.90;;;;;;5033813;28;20180;-79
2021/10/14 04:07:25;;;;;;;2.23;2.03;;;4.10;99.90;;;;;;5034053;28;20176;-79
2021/10/14 04:09:50;;;;;;;2.30;2.10;;;4.20;99.90;;;;;;5034079;28;20184;-80
2021/10/14 04:12:16;;;;;;;2.73;2.03;;;4.10;99.90;;;;;;5031197;28;20497;-79
2021/10/14 04:14:42;;;;;;;2.83;2.10;;;4.10;99.90;;;;;;5033714;28;20183;-79
2021/10/14 04:17:08;;;;;;;2.97;2.67;;;4.00;99.90;;;;;;5030903;28;20169;-78
2021/10/14 04:19:33;;;;;;;3.97;2.93;;;4.00;99.90;;;;;;5031077;28;20203;-79
2021/10/14 04:21:59;;;;;;;4.17;2.70;;;4.00;99.90;;;;;;5033785;28;20271;-79
2021/10/14 04:24:27;;;;;;;2.70;2.50;;;4.00;99.90;;;;;;5033735;28;20180;-79
2021/10/14 04:26:53;;;;;;;2.30;2.10;;;4.00;99.90;;;;;;5033970;28;20835;-79
2021/10/14 04:29:19;;;;;;;2.20;2.00;;;4.00;99.90;;;;;;5034342;28;20238;-79
2021/10/14 04:31:45;;;;;;;2.67;2.47;;;4.00;99.90;;;;;;5038058;28;20200;-79
2021/10/14 04:34:11;;;;;;;2.77;2.50;;;4.00;99.90;;;;;;5037450;28;20183;-79
2021/10/14 04:36:37;;;;;;;2.63;2.43;;;4.00;99.90;;;;;;5034872;28;20177;-79
2021/10/14 04:39:05;;;;;;;2.87;2.50;;;3.90;99.90;;;;;;5039702;28;20181;-79
2021/10/14 04:41:31;;;;;;;5.03;2.77;;;4.00;99.90;;;;;;5040087;28;20202;-79
2021/10/14 04:43:57;;;;;;;2.97;2.67;;;3.90;99.90;;;;;;5042315;28;20261;-80
2021/10/14 04:46:22;;;;;;;2.50;2.30;;;3.80;99.90;;;;;;5037554;28;20289;-79
2021/10/14 04:48:48;;;;;;;3.50;2.40;;;3.90;99.90;;;;;;5038482;28;20249;-79
2021/10/14 04:51:14;;;;;;;2.40;2.20;;;3.80;99.90;;;;;;5038959;28;20204;-79
2021/10/14 04:53:39;;;;;;;2.37;2.17;;;3.80;99.90;;;;;;5038279;28;20236;-79
2021/10/14 04:56:06;;;;;;;2.40;2.20;;;3.80;99.90;;;;;;5038538;28;20219;-79
2021/10/14 04:58:32;;;;;;;3.27;2.20;;;3.90;99.90;;;;;;5035461;28;20579;-78
2021/10/14 05:00:58;;;;;;;2.70;2.50;;;3.80;99.90;;;;;;5036735;28;20206;-79
2021/10/14 05:03:24;;;;;;;2.70;2.50;;;3.80;99.90;;;;;;5036147;28;20666;-79
2021/10/14 05:05:50;;;;;;;3.53;2.37;;;3.70;99.90;;;;;;5037794;28;20184;-79
2021/10/14 05:08:15;;;;;;;3.53;2.60;;;3.70;99.90;;;;;;5037001;28;20712;-78
2021/10/14 05:10:41;;;;;;;3.00;2.60;;;3.80;99.90;;;;;;5036731;28;20218;-79
2021/10/14 05:13:08;;;;;;;4.13;3.27;;;3.70;99.90;;;;;;5037699;28;20695;-79
2021/10/14 05:15:34;;;;;;;3.33;3.03;;;3.70;99.90;;;;;;5039198;28;20200;-79
2021/10/14 05:18:00;;;;;;;3.43;3.13;;;3.60;99.90;;;;;;5038495;28;20174;-79
2021/10/14 05:20:25;;;;;;;3.47;2.97;;;3.60;99.90;;;;;;5039631;28;20192;-80
2021/10/14 05:22:51;;;;;;;3.87;3.10;;;3.60;99.90;;;;;;5036963;28;20214;-80
2021/10/14 05:25:17;;;;;;;3.40;3.10;;;3.60;99.90;;;;;;5037710;28;20243;-79
2021/10/14 05:27:43;;;;;;;3.23;2.93;;;3.60;99.90;;;;;;5037509;28;20173;-79
2021/10/14 05:30:09;;;;;;;3.80;3.40;;;3.60;99.90;;;;;;5036635;28;20260;-80
2021/10/14 05:32:35;;;;;;;3.87;2.97;;;3.60;99.90;;;;;;5038442;28;20196;-80
2021/10/14 05:35:00;;;;;;;2.67;2.33;;;3.60;99.90;;;;;;5038356;28;20621;-80
2021/10/14 05:37:27;;;;;;;3.63;2.20;;;3.50;99.90;;;;;;5037733;28;20184;-80
2021/10/14 05:39:53;;;;;;;2.60;2.37;;;3.60;99.90;;;;;;5035499;28;20238;-80
2021/10/14 05:42:19;;;;;;;2.40;2.20;;;3.50;99.90;;;;;;5034192;28;20232;-79
2021/10/14 05:44:44;;;;;;;3.30;2.40;;;3.50;99.90;;;;;;5035215;28;20237;-79
2021/10/14 05:47:11;;;;;;;3.17;2.87;;;3.50;99.90;;;;;;5036012;28;20196;-79
2021/10/14 05:49:36;;;;;;;2.90;2.60;;;3.50;99.90;;;;;;5037700;28;20172;-79
2021/10/14 05:52:03;;;;;;;2.90;2.70;;;3.50;99.90;;;;;;5036935;28;20766;-79
2021/10/14 05:54:28;;;;;;;3.00;2.70;;;3.50;99.90;;;;;;5038173;28;20216;-79
2021/10/14 05:56:54;;;;;;;5.90;3.27;;;3.50;99.90;;;;;;5036399;28;20183;-79
2021/10/14 05:59:19;;;;;;;3.60;2.90;;;3.50;99.90;;;;;;5038852;28;20639;-79
2021/10/14 06:01:45;;;;;;;3.67;2.40;;;3.50;99.90;;;;;;5039495;28;20727;-79
2021/10/14 06:04:11;;;;;;;5.83;3.00;;;3.50;99.90;;;;;;5038641;28;20198;-79
2021/10/14 06:06:36;;;;;;;4.53;2.60;;;3.50;99.90;;;;;;5038505;28;20475;-77
2021/10/14 06:09:02;;;;;;;3.87;3.17;;;3.40;99.90;;;;;;5037540;28;20177;-80
2021/10/14 06:11:28;;;;;;;4.33;2.30;;;3.50;99.90;;;;;;5037785;28;20208;-79
2021/10/14 06:13:53;;;;;;;4.57;2.60;;;3.60;99.90;;;;;;5038124;28;20216;-79
2021/10/14 06:16:19;;;;;;;3.33;2.37;;;3.60;99.90;;;;;;5038782;28;20180;-79
2021/10/14 06:18:44;;;;;;;4.30;3.00;;;3.60;99.90;;;;;;5036757;28;20263;-79
2021/10/14 06:21:10;;;;;;;2.60;2.40;;;3.70;99.90;;;;;;5038010;28;20211;-79
2021/10/14 06:23:36;;;;;;;4.57;2.73;;;3.70;99.90;;;;;;5037543;28;20284;-79
2021/10/14 06:26:01;;;;;;;2.60;2.37;;;3.70;99.90;;;;;;5036529;28;20527;-79
2021/10/14 06:28:27;;;;;;;3.90;3.07;;;3.70;99.90;;;;;;5037712;28;20187;-79
2021/10/14 06:30:53;;;;;;;3.37;2.70;;;3.80;99.90;;;;;;5035652;28;20200;-80
2021/10/14 06:33:19;;;;;;;5.37;2.90;;;3.80;99.90;;;;;;5036796;28;20207;-79
2021/10/14 06:35:44;;;;;;;2.60;2.40;;;3.90;99.90;;;;;;5034145;28;20587;-80
2021/10/14 06:38:10;;;;;;;3.03;2.73;;;4.00;99.90;;;;;;5038728;28;20266;-79
2021/10/14 06:40:36;;;;;;;3.10;2.50;;;4.00;99.90;;;;;;5036602;28;20220;-79
2021/10/14 06:43:02;;;;;;;3.10;2.60;;;3.90;99.90;;;;;;5036684;28;20181;-80
2021/10/14 06:45:27;;;;;;;5.03;3.13;;;4.00;99.90;;;;;;5036175;28;20256;-79
2021/10/14 06:47:53;;;;;;;3.60;3.10;;;4.00;99.90;;;;;;5039475;28;20183;-78
2021/10/14 06:50:19;;;;;;;10.40;3.60;;;4.00;99.90;;;;;;5036413;28;20209;-79
2021/10/14 06:52:44;;;;;;;3.97;3.67;;;4.00;99.90;;;;;;5034260;28;20988;-79
2021/10/14 06:55:10;;;;;;;4.50;3.50;;;4.00;99.90;;;;;;5036415;28;21488;-79
2021/10/14 06:57:36;;;;;;;5.97;4.07;;;4.10;99.90;;;;;;5034899;28;20221;-79
2021/10/14 07:00:05;;;;;;;7.97;4.40;;;4.10;99.90;;;;;;5037551;28;20253;-79
2021/10/14 07:02:31;;;;;;;6.87;4.97;;;4.10;99.90;;;;;;5035183;28;20296;-79
2021/10/14 07:04:56;;;;;;;11.97;6.00;;;4.20;99.90;;;;;;5035471;28;20195;-80
2021/10/14 07:07:22;;;;;;;8.97;4.97;;;4.30;99.90;;;;;;5035762;28;20208;-80
2021/10/14 07:09:47;;;;;;;15.73;6.53;;;4.50;99.90;;;;;;5035445;28;20715;-79
2021/10/14 07:12:14;;;;;;;15.47;7.20;;;4.40;99.90;;;;;;5034795;28;20224;-79
2021/10/14 07:14:40;;;;;;;18.20;8.27;;;4.60;99.90;;;;;;5035564;28;20259;-79
2021/10/14 07:17:06;;;;;;;16.47;8.43;;;4.50;99.90;;;;;;5035775;28;20187;-79
2021/10/14 07:19:33;;;;;;;21.83;9.13;;;4.60;99.90;;;;;;5031989;28;20175;-79
2021/10/14 07:21:59;;;;;;;18.87;8.90;;;4.60;99.90;;;;;;5022754;28;20212;-79
2021/10/14 07:24:25;;;;;;;18.87;8.20;;;4.60;99.90;;;;;;5035109;28;20266;-79
2021/10/14 07:26:51;;;;;;;24.67;9.50;;;4.60;99.90;;;;;;5035838;28;20208;-79
2021/10/14 07:29:17;;;;;;;21.73;8.63;;;4.60;99.90;;;;;;5035932;28;20176;-79
2021/10/14 07:31:43;;;;;;;25.77;9.83;;;4.70;99.90;;;;;;5036283;28;20664;-79
2021/10/14 07:34:09;;;;;;;22.87;8.67;;;4.90;99.90;;;;;;5034538;28;20200;-79
2021/10/14 07:36:35;;;;;;;24.27;9.20;;;4.80;99.90;;;;;;5029255;28;20181;-79
2021/10/14 07:39:02;;;;;;;27.50;9.63;;;4.80;99.90;;;;;;5033914;28;20184;-78
2021/10/14 07:41:28;;;;;;;25.13;9.23;;;4.90;99.90;;;;;;5033423;28;20224;-79
2021/10/14 07:43:54;;;;;;;30.40;9.63;;;4.90;99.90;;;;;;5034833;28;20197;-80
2021/10/14 07:46:20;;;;;;;34.10;11.93;;;5.00;99.90;;;;;;5032322;28;20186;-79
2021/10/14 07:48:46;;;;;;;36.10;11.37;;;5.00;99.90;;;;;;5032874;28;20694;-79
2021/10/14 07:51:12;;;;;;;32.03;9.93;;;5.00;99.90;;;;;;5032177;28;20696;-78
2021/10/14 07:53:39;;;;;;;32.60;10.53;;;5.10;99.90;;;;;;5032670;28;20310;-79
2021/10/14 07:56:05;;;;;;;30.60;10.63;;;5.10;99.90;;;;;;5034073;28;20644;-78
2021/10/14 07:58:31;;;;;;;26.33;10.37;;;5.10;99.90;;;;;;5033508;28;20228;-79
2021/10/14 08:00:57;;;;;;;33.13;11.70;;;5.00;99.90;;;;;;5034633;28;20235;-80
2021/10/14 08:03:22;;;;;;;35.03;11.63;;;5.10;99.90;;;;;;5032477;28;20203;-80
2021/10/14 08:05:48;;;;;;;34.97;11.60;;;5.10;99.90;;;;;;5036203;28;20185;-80
2021/10/14 08:08:16;;;;;;;32.33;11.57;;;5.20;99.90;;;;;;5038423;28;20544;-79
2021/10/14 08:10:42;;;;;;;35.93;11.07;;;5.20;99.90;;;;;;5036670;28;20200;-80
2021/10/14 08:13:13;;;;;;;33.27;11.63;;;5.20;99.90;;;;;;5037343;28;20357;-80
2021/10/14 08:15:41;;;;;;;26.67;10.70;;;5.20;99.90;;;;;;5036285;28;20185;-79
2021/10/14 08:18:07;;;;;;;27.20;10.97;;;5.20;99.90;;;;;;5037459;28;20313;-79
2021/10/14 08:20:34;;;;;;;28.93;11.00;;;5.30;99.90;;;;;;5036061;28;20212;-79
2021/10/14 08:23:01;;;;;;;33.87;13.10;;;5.20;99.90;;;;;;5037644;28;20652;-79
2021/10/14 08:25:26;;;;;;;32.10;12.50;;;5.30;99.90;;;;;;5037499;28;20191;-79
2021/10/14 08:27:52;;;;;;;32.67;13.57;;;5.40;99.90;;;;;;5037807;28;20184;-79
2021/10/14 08:30:18;;;;;;;31.97;13.87;;;5.40;99.90;;;;;;5039267;28;20236;-77
2021/10/14 08:32:43;;;;;;;33.77;13.73;;;5.40;99.90;;;;;;5040341;28;20215;-79
2021/10/14 08:35:13;;;;;;;31.10;13.63;;;5.50;99.90;;;;;;5043399;28;20267;-80
2021/10/14 08:37:39;;;;;;;39.43;15.97;;;5.70;99.90;;;;;;5043349;28;20204;-80
2021/10/14 08:40:05;;;;;;;36.20;16.47;;;5.70;99.90;;;;;;5041788;28;20523;-80
2021/10/14 08:42:31;;;;;;;36.97;17.50;;;5.70;99.90;;;;;;5042252;28;20186;-79
2021/10/14 08:45:02;;;;;;;40.60;20.87;;;5.90;99.90;;;;;;5040750;28;20612;-79
2021/10/14 08:47:28;;;;;;;42.13;19.03;;;5.80;99.90;;;;;;5041856;28;20189;-80
2021/10/14 08:49:55;;;;;;;41.93;17.07;;;5.90;99.90;;;;;;5039217;28;20191;-79
2021/10/14 08:52:21;;;;;;;36.10;18.37;;;5.90;99.90;;;;;;5039967;28;20585;-79
2021/10/14 08:54:47;;;;;;;41.37;20.70;;;5.90;99.90;;;;;;5039462;28;20272;-79
2021/10/14 08:57:13;;;;;;;37.07;17.67;;;5.90;99.90;;;;;;5039178;28;20256;-78
2021/10/14 08:59:38;;;;;;;35.27;18.03;;;5.90;99.90;;;;;;5039427;28;20174;-80
2021/10/14 09:02:16;;;;;;;38.93;18.23;;;6.00;99.90;;;;;;5038040;28;20202;-79
2021/10/14 09:05:04;;;;;;;36.27;18.17;;;6.10;99.90;;;;;;5039126;28;20186;-79
2021/10/14 09:07:32;;;;;;;29.70;16.77;;;6.10;99.90;;;;;;5039131;28;20177;-80
2021/10/14 09:10:01;;;;;;;32.63;17.47;;;6.20;99.90;;;;;;5037785;28;20783;-80
2021/10/14 09:12:33;;;;;;;37.20;18.77;;;6.20;99.90;;;;;;5038259;28;20210;-79
2021/10/14 09:15:08;;;;;;;32.30;18.40;;;6.30;99.90;;;;;;5037309;28;20177;-79
2021/10/14 09:17:37;;;;;;;38.37;18.20;;;6.30;99.90;;;;;;5036064;28;20178;-79
2021/10/14 09:20:20;;;;;;;34.10;18.70;;;6.40;99.90;;;;;;5036616;28;20586;-80
2021/10/14 09:23:05;;;;;;;33.53;18.80;;;6.40;99.90;;;;;;5036483;28;20196;-79
2021/10/14 09:25:52;;;;;;;29.87;18.17;;;6.40;99.90;;;;;;5034208;28;20202;-79
2021/10/14 09:28:23;;;;;;;30.87;18.87;;;6.40;99.90;;;;;;5036181;28;20205;-80
2021/10/14 09:31:02;;;;;;;37.57;19.37;;;6.40;99.90;;;;;;5034617;28;20198;-80
2021/10/14 09:33:43;;;;;;;29.83;18.87;;;6.40;99.90;;;;;;5036356;28;20190;-79
2021/10/14 09:36:25;;;;;;;43.87;23.10;;;6.50;99.90;;;;;;5035932;28;20230;-79
2021/10/14 09:39:01;;;;;;;38.00;22.37;;;6.50;99.90;;;;;;5035293;28;20206;-79
2021/10/14 09:41:27;;;;;;;36.77;20.73;;;6.50;99.90;;;;;;5025273;28;20572;-79
2021/10/14 09:43:55;;;;;;;35.50;20.57;;;6.50;99.90;;;;;;5034810;28;20311;-78
2021/10/14 09:46:40;;;;;;;37.73;21.77;;;6.50;99.90;;;;;;5033586;28;20212;-79
2021/10/14 09:49:20;;;;;;;34.57;21.37;;;6.50;99.90;;;;;;5034773;28;20232;-79
2021/10/14 09:51:47;;;;;;;38.37;23.33;;;6.50;99.90;;;;;;5033475;28;20201;-79
2021/10/14 09:54:12;;;;;;;42.93;25.70;;;6.60;99.90;;;;;;5036006;28;20173;-79
2021/10/14 09:56:39;;;;;;;88.20;50.73;;;6.60;99.90;;;;;;5035812;28;20174;-79
2021/10/14 09:59:05;;;;;;;54.30;32.63;;;6.70;99.90;;;;;;5034422;28;20198;-79
2021/10/14 10:01:36;;;;;;;40.83;24.50;;;6.70;99.90;;;;;;5034688;28;20725;-79
2021/10/14 10:04:04;;;;;;;42.90;25.07;;;6.80;99.90;;;;;;5034120;28;20182;-80
2021/10/14 10:06:32;;;;;;;40.00;23.40;;;6.90;99.90;;;;;;5035055;28;20190;-79
2021/10/14 10:09:17;;;;;;;66.33;40.27;;;7.00;99.90;;;;;;5035497;28;20648;-79
2021/10/14 10:11:47;;;;;;;35.97;22.57;;;7.10;99.90;;;;;;5033944;28;20260;-79
2021/10/14 10:14:14;;;;;;;35.37;21.57;;;7.10;99.90;;;;;;5034546;28;20205;-79
2021/10/14 10:16:57;;;;;;;32.33;21.83;;;7.30;99.90;;;;;;5037100;28;20254;-79
2021/10/14 10:19:48;;;;;;;37.70;22.50;;;7.30;99.90;;;;;;5021714;28;20182;-80
2021/10/14 10:22:33;;;;;;;34.27;21.53;;;7.60;99.90;;;;;;5028865;28;20222;-80
2021/10/14 10:25:19;;;;;;;31.33;19.80;;;7.80;99.90;;;;;;5026158;28;20191;-80
2021/10/14 10:27:45;;;;;;;31.87;20.97;;;7.80;99.90;;;;;;5027149;28;20660;-80
2021/10/14 10:30:27;;;;;;;27.03;19.90;;;7.80;99.90;;;;;;5031552;28;20274;-80
2021/10/14 10:32:53;;;;;;;33.80;21.83;;;7.80;99.90;;;;;;5028255;28;20194;-80
2021/10/14 10:35:41;;;;;;;31.63;21.33;;;7.80;99.90;;;;;;5027305;28;20558;-80
2021/10/14 10:38:20;;;;;;;31.00;19.57;;;7.90;99.90;;;;;;5020001;28;20248;-81
2021/10/14 10:40:49;;;;;;;28.33;18.30;;;8.10;99.90;;;;;;5025231;28;20201;-81
2021/10/14 10:43:22;;;;;;;20.63;16.90;;;8.10;99.90;;;;;;5030698;28;20186;-82
2021/10/14 10:45:52;;;;;;;21.50;15.83;;;8.20;99.90;;;;;;5031446;28;20197;-80
2021/10/14 10:48:35;;;;;;;21.83;15.23;;;8.40;99.90;;;;;;5027944;28;20198;-80
2021/10/14 10:51:01;;;;;;;18.23;15.10;;;8.50;99.90;;;;;;5026850;28;20207;-78
2021/10/14 10:53:48;;;;;;;22.27;15.70;;;8.60;99.90;;;;;;5026356;28;20202;-80
2021/10/14 10:56:34;;;;;;;18.90;15.47;;;9.00;99.90;;;;;;5024412;28;20166;-81
2021/10/14 10:59:01;;;;;;;14.17;12.67;;;9.30;99.90;;;;;;5029780;28;20279;-81
2021/10/14 11:01:28;;;;;;;14.50;12.93;;;9.30;99.90;;;;;;5033094;28;20475;-81
2021/10/14 11:03:59;;;;;;;15.93;13.00;;;9.40;99.90;;;;;;5029299;28;20205;-81
2021/10/14 11:06:26;;;;;;;17.07;12.27;;;9.60;99.90;;;;;;5032343;28;20178;-81
2021/10/14 11:08:52;;;;;;;16.30;12.97;;;9.70;99.90;;;;;;5022627;28;20617;-81
2021/10/14 11:11:21;;;;;;;14.20;11.30;;;9.80;99.90;;;;;;5030566;28;20261;-81
2021/10/14 11:13:50;;;;;;;11.57;9.93;;;9.60;99.90;;;;;;5031110;28;20200;-81
2021/10/14 11:16:18;;;;;;;9.27;8.43;;;9.50;99.90;;;;;;5025669;28;20322;-81
2021/10/14 11:18:46;;;;;;;10.87;9.50;;;9.70;99.90;;;;;;5025061;28;20182;-81
2021/10/14 11:21:16;;;;;;;10.03;9.03;;;10.90;99.90;;;;;;5032292;28;20215;-80
2021/10/14 11:23:52;;;;;;;10.27;9.20;;;10.30;99.90;;;;;;5027271;28;20206;-81
2021/10/14 11:26:34;;;;;;;9.63;8.73;;;10.40;99.90;;;;;;5026380;28;20187;-81
2021/10/14 11:29:05;;;;;;;11.20;9.03;;;10.40;99.90;;;;;;5032310;28;22605;-81
2021/10/14 11:31:37;;;;;;;10.13;9.33;;;10.30;99.90;;;;;;5033528;28;20204;-81
2021/10/14 11:34:17;;;;;;;8.53;7.63;;;10.50;99.90;;;;;;5031096;28;20212;-80
2021/10/14 11:36:49;;;;;;;7.67;6.97;;;10.70;99.90;;;;;;5027237;28;20174;-80
2021/10/14 11:39:15;;;;;;;7.70;6.90;;;10.90;99.90;;;;;;5030411;28;20250;-80
2021/10/14 11:41:41;;;;;;;7.23;6.40;;;10.80;99.90;;;;;;5032264;28;20278;-80
2021/10/14 11:44:10;;;;;;;8.77;6.77;;;10.80;99.90;;;;;;5031588;28;20198;-81
2021/10/14 11:46:37;;;;;;;6.93;6.27;;;10.90;99.90;;;;;;5035415;28;20191;-80
2021/10/14 11:49:09;;;;;;;5.87;5.27;;;10.90;99.90;;;;;;5037411;28;20639;-80
2021/10/14 11:51:36;;;;;;;5.50;5.10;;;11.00;99.90;;;;;;5036324;28;20236;-82
2021/10/14 11:54:10;;;;;;;6.20;5.00;;;11.20;99.90;;;;;;5033782;28;20199;-82
2021/10/14 11:56:44;;;;;;;6.03;5.43;;;11.40;99.90;;;;;;5031939;28;20553;-80
2021/10/14 11:59:10;;;;;;;8.17;7.47;;;11.40;99.90;;;;;;5036651;28;20182;-82
2021/10/14 12:01:59;;;;;;;5.50;5.00;;;11.30;99.90;;;;;;5032102;28;20218;-82
2021/10/14 12:04:33;;;;;;;4.37;3.93;;;11.30;99.90;;;;;;5028110;28;20181;-81
2021/10/14 12:07:01;;;;;;;7.57;4.80;;;11.40;99.90;;;;;;5029594;28;20171;-81
2021/10/14 12:09:27;;;;;;;3.13;2.83;;;11.50;99.90;;;;;;5031739;28;20260;-81
2021/10/14 12:12:03;;;;;;;4.93;2.73;;;11.50;99.90;;;;;;5034283;28;20207;-80
2021/10/14 12:14:29;;;;;;;2.77;2.30;;;11.60;99.90;;;;;;5030240;28;20187;-80
2021/10/14 12:17:11;;;;;;;3.40;2.90;;;11.70;99.90;;;;;;5034078;28;20810;-81
2021/10/14 12:19:47;;;;;;;3.60;3.03;;;12.00;99.90;;;;;;5027911;28;20180;-81
2021/10/14 12:22:21;;;;;;;4.73;3.03;;;12.10;99.90;;;;;;5029005;28;20215;-81
2021/10/14 12:24:54;;;;;;;3.50;3.20;;;12.00;99.90;;;;;;5029174;28;20707;-81
2021/10/14 12:27:20;;;;;;;5.23;3.10;;;12.00;99.90;;;;;;5028964;28;20194;-80
2021/10/14 12:29:47;;;;;;;3.07;2.40;;;12.00;99.90;;;;;;5034967;28;20181;-80
2021/10/14 12:32:19;;;;;;;3.47;2.30;;;12.10;99.90;;;;;;5034687;28;20205;-81
2021/10/14 12:34:55;;;;;;;2.70;2.50;;;12.10;99.90;;;;;;5027027;28;20182;-81
2021/10/14 12:37:32;;;;;;;3.27;2.60;;;12.20;99.90;;;;;;5034370;28;20210;-82
2021/10/14 12:40:22;;;;;;;3.07;2.57;;;12.20;99.90;;;;;;5032425;28;20214;-82
2021/10/14 12:45:40;;;;;;;3.27;2.70;;;12.30;99.90;;;;;;5028952;28;20202;-82
2021/10/14 12:53:39;;;;;;;3.70;2.57;;;12.30;99.90;;;;;;5034521;28;20207;-82
2021/10/14 12:56:04;;;;;;;3.33;2.70;;;12.30;99.90;;;;;;5036726;28;20181;-82
2021/10/14 12:58:30;;;;;;;3.40;3.03;;;12.30;99.90;;;;;;5036893;28;20192;-82
2021/10/14 13:01:00;;;;;;;3.40;2.23;;;12.30;99.90;;;;;;5031689;28;20212;-81
2021/10/14 13:03:25;;;;;;;4.00;1.63;;;12.40;99.90;;;;;;5034297;28;20179;-83